Terminal Aerodrome Forecast
Issued by NWS

Home | Current Version | Previous Version | Text Only | Print | Product List | Glossary On
Versions: 1 2 3 4 5 6 7 8 9 10 11 12 13
000
FTUS44 KLZK 211000 AAA
TAFLLQ
TAF AMD
KLLQ 211011Z 2110/2206 00000KT P6SM SKC
      TEMPO 2110/2113 5SM BR SCT045
     FM211400 04004KT P6SM SKC=

USA.gov is the U.S. government's official web portal to all federal, state and local government web resources and services.